createdAt,value
2023-04-14T00:00:02.159Z,52.20
2023-04-14T00:03:09.736Z,47.40
2023-04-14T00:05:44.603Z,45.90
2023-04-14T00:08:24.972Z,44.30
2023-04-14T00:10:57.819Z,47.70
2023-04-14T00:13:29.886Z,39.80
2023-04-14T00:16:04.965Z,42.50
2023-04-14T00:18:38.327Z,43.60
2023-04-14T00:21:13.747Z,44.40
2023-04-14T00:23:47.049Z,41.10
2023-04-14T00:26:18.584Z,41.70
2023-04-14T00:28:49.697Z,42.50
2023-04-14T00:31:35.966Z,44.50
2023-04-14T00:34:09.285Z,43.00
2023-04-14T00:36:42.201Z,44.80
2023-04-14T00:39:14.864Z,45.80
2023-04-14T00:44:47.641Z,48.90
2023-04-14T00:47:29.045Z,48.70
2023-04-14T00:50:17.060Z,50.20
2023-04-14T00:52:53.179Z,50.30
2023-04-14T00:55:36.676Z,47.60
2023-04-14T00:58:36.607Z,49.70
2023-04-14T01:01:23.269Z,47.20
2023-04-14T01:04:01.890Z,45.30
2023-04-14T01:06:42.417Z,48.20
2023-04-14T01:09:27.732Z,50.00
2023-04-14T01:12:25.105Z,51.00
2023-04-14T01:15:44.081Z,51.90
2023-04-14T01:18:45.755Z,52.50
2023-04-14T01:21:26.995Z,51.70
2023-04-14T01:24:41.759Z,49.70
2023-04-14T01:27:49.172Z,52.30
2023-04-14T01:30:45.342Z,51.30
2023-04-14T01:33:29.895Z,49.40
2023-04-14T01:36:10.770Z,45.70
2023-04-14T01:38:59.493Z,41.80
2023-04-14T01:41:42.649Z,45.20
2023-04-14T01:44:25.195Z,46.50
2023-04-14T01:47:11.190Z,46.30
2023-04-14T01:49:45.708Z,45.50
2023-04-14T01:55:17.569Z,46.40
2023-04-14T01:58:01.401Z,47.60
2023-04-14T02:00:45.309Z,49.40
2023-04-14T02:03:36.985Z,51.00
2023-04-14T02:06:27.037Z,46.30
2023-04-14T02:09:13.598Z,45.70
2023-04-14T02:12:05.134Z,45.90
2023-04-14T02:14:50.743Z,43.90
2023-04-14T02:17:29.545Z,42.10
2023-04-14T02:20:04.502Z,42.10
2023-04-14T02:22:38.692Z,43.10
2023-04-14T02:25:14.505Z,44.40
2023-04-14T02:28:17.937Z,40.80
2023-04-14T02:31:05.614Z,40.70
2023-04-14T02:33:54.734Z,42.60
2023-04-14T02:36:49.081Z,40.10
2023-04-14T02:39:41.964Z,41.00
2023-04-14T02:42:33.976Z,43.40
2023-04-14T02:45:38.181Z,43.40
2023-04-14T02:48:19.229Z,44.40
2023-04-14T02:51:02.811Z,44.60
2023-04-14T02:53:36.367Z,41.70
2023-04-14T02:56:32.553Z,42.80
2023-04-14T02:59:17.420Z,45.40
2023-04-14T03:02:05.046Z,45.70
2023-04-14T03:04:41.676Z,46.00
2023-04-14T03:07:54.263Z,49.00
2023-04-14T03:10:35.432Z,51.30
2023-04-14T03:13:19.904Z,50.70
2023-04-14T03:16:09.574Z,50.70
2023-04-14T03:19:13.077Z,53.80
2023-04-14T03:22:13.392Z,51.40
2023-04-14T03:25:02.125Z,52.60
2023-04-14T03:27:45.465Z,52.30
2023-04-14T03:30:30.664Z,53.80
2023-04-14T03:33:12.274Z,98.20
2023-04-14T03:35:55.864Z,93.80
2023-04-14T03:38:48.156Z,59.30
2023-04-14T03:41:21.808Z,52.10
2023-04-14T03:44:02.380Z,53.00
2023-04-14T03:46:51.531Z,50.90
2023-04-14T03:49:34.010Z,54.90
2023-04-14T03:52:17.293Z,55.20
2023-04-14T03:55:14.497Z,60.00
2023-04-14T03:58:29.119Z,61.10
2023-04-14T04:01:14.908Z,61.90
2023-04-14T04:03:49.278Z,59.30
2023-04-14T04:06:32.303Z,60.60
2023-04-14T04:09:12.521Z,61.20
2023-04-14T04:11:53.410Z,62.30
2023-04-14T04:14:38.533Z,64.90
2023-04-14T04:17:20.525Z,61.10
2023-04-14T04:20:12.730Z,62.00
2023-04-14T04:22:55.254Z,57.10
2023-04-14T04:25:59.810Z,61.40
2023-04-14T04:28:46.805Z,65.80
2023-04-14T04:31:27.581Z,64.90
2023-04-14T04:34:14.196Z,71.20
2023-04-14T04:36:45.747Z,73.90
2023-04-14T04:40:31.594Z,72.30
2023-04-14T04:43:04.242Z,71.30
2023-04-14T04:46:41.327Z,75.30
2023-04-14T04:49:11.371Z,68.10
2023-04-14T04:51:51.520Z,65.80
2023-04-14T04:54:28.211Z,69.10
2023-04-14T04:57:01.354Z,64.80
2023-04-14T04:59:36.057Z,61.40
2023-04-14T05:02:22.010Z,60.30
2023-04-14T05:04:52.286Z,59.30
2023-04-14T05:07:22.724Z,63.50
2023-04-14T05:10:01.183Z,59.90
2023-04-14T05:12:32.039Z,59.00
2023-04-14T05:15:12.565Z,58.90
2023-04-14T05:17:50.517Z,55.50
2023-04-14T05:20:21.579Z,53.60
2023-04-14T05:22:57.830Z,52.60
2023-04-14T05:25:37.742Z,52.00
2023-04-14T05:28:11.125Z,52.90
2023-04-14T05:30:43.531Z,56.50
2023-04-14T05:33:20.752Z,56.20
2023-04-14T05:35:52.772Z,58.90
2023-04-14T05:38:26.176Z,59.00
2023-04-14T05:41:06.131Z,58.40
2023-04-14T05:43:37.582Z,58.00
2023-04-14T05:46:25.669Z,53.20
2023-04-14T05:49:04.827Z,41.40
2023-04-14T05:51:44.081Z,42.50
2023-04-14T05:54:20.838Z,39.40
2023-04-14T05:56:54.274Z,40.40
2023-04-14T05:59:32.256Z,42.60
2023-04-14T06:02:09.072Z,39.30
2023-04-14T06:04:40.567Z,40.10
2023-04-14T06:07:10.742Z,38.40
2023-04-14T06:09:47.076Z,39.70
2023-04-14T06:12:17.166Z,41.50
2023-04-14T06:14:49.430Z,42.90
2023-04-14T06:17:29.023Z,47.40
2023-04-14T06:20:00.156Z,46.20
2023-04-14T06:22:35.559Z,43.30
2023-04-14T06:25:07.094Z,43.50
2023-04-14T06:27:48.904Z,42.80
2023-04-14T06:30:44.290Z,43.50
2023-04-14T06:33:16.488Z,44.70
2023-04-14T06:38:21.959Z,44.60
2023-04-14T06:40:56.887Z,46.60
2023-04-14T06:43:29.851Z,51.20
2023-04-14T06:46:15.137Z,55.80
2023-04-14T06:48:48.547Z,56.60
2023-04-14T06:51:21.264Z,51.40
2023-04-14T06:53:52.160Z,46.80
2023-04-14T06:56:28.500Z,44.30
2023-04-14T06:59:06.688Z,45.30
2023-04-14T07:01:37.330Z,42.20
2023-04-14T07:04:09.370Z,43.80
2023-04-14T07:06:42.983Z,43.70
2023-04-14T07:09:23.073Z,41.40
2023-04-14T07:11:54.293Z,44.60
2023-04-14T07:14:27.207Z,43.00
2023-04-14T07:16:57.577Z,39.30
2023-04-14T07:19:27.541Z,40.90
2023-04-14T07:22:05.484Z,39.30
2023-04-14T07:24:42.417Z,41.70
2023-04-14T07:27:20.172Z,37.60
2023-04-14T07:30:02.077Z,39.20
2023-04-14T07:32:42.836Z,37.40
2023-04-14T07:35:15.314Z,40.40
2023-04-14T07:37:54.390Z,42.10
2023-04-14T07:40:25.153Z,39.80
2023-04-14T07:43:01.897Z,37.80
2023-04-14T07:45:42.280Z,37.00
2023-04-14T07:48:18.343Z,38.10
2023-04-14T07:50:55.588Z,38.10
2023-04-14T07:53:44.065Z,38.20
2023-04-14T07:56:24.032Z,37.10
2023-04-14T07:59:19.907Z,35.90
2023-04-14T08:02:03.760Z,33.00
2023-04-14T08:04:44.278Z,33.80
2023-04-14T08:07:17.012Z,38.80
2023-04-14T08:09:55.554Z,31.50
2023-04-14T08:12:36.739Z,31.10
2023-04-14T08:15:13.419Z,30.60
2023-04-14T08:17:50.140Z,30.00
2023-04-14T08:20:28.961Z,31.40
2023-04-14T08:23:06.582Z,31.30
2023-04-14T08:25:42.464Z,28.40
2023-04-14T08:28:22.702Z,29.20
2023-04-14T08:31:01.677Z,28.10
2023-04-14T08:33:40.236Z,28.60
2023-04-14T08:39:28.025Z,28.70
2023-04-14T08:44:57.540Z,31.80
2023-04-14T08:47:32.963Z,28.30
2023-04-14T08:50:28.088Z,27.60
2023-04-14T08:55:51.696Z,25.30
2023-04-14T08:58:37.762Z,26.50
2023-04-14T09:01:35.148Z,25.00
2023-04-14T09:04:17.156Z,25.70
2023-04-14T09:07:02.997Z,26.50
2023-04-14T09:09:50.663Z,26.30
2023-04-14T09:12:38.611Z,31.80
2023-04-14T09:15:13.648Z,26.50
2023-04-14T09:17:58.860Z,23.90
2023-04-14T09:20:42.217Z,25.70
2023-04-14T09:23:13.495Z,26.10
2023-04-14T09:25:56.940Z,23.60
2023-04-14T09:28:50.577Z,24.80
2023-04-14T09:31:54.073Z,26.50
2023-04-14T09:34:58.634Z,24.20
2023-04-14T09:38:02.027Z,23.20
2023-04-14T09:40:38.792Z,25.50
2023-04-14T09:43:49.488Z,23.70
2023-04-14T09:46:40.584Z,24.50
2023-04-14T09:49:20.370Z,21.70
2023-04-14T09:52:04.164Z,21.20
2023-04-14T09:54:41.088Z,21.70
2023-04-14T09:57:33.861Z,18.80
2023-04-14T10:03:20.456Z,19.20
2023-04-14T10:06:24.707Z,20.10
2023-04-14T10:09:03.737Z,13.70
2023-04-14T10:12:14.742Z,17.70
2023-04-14T10:14:48.991Z,21.00
2023-04-14T10:17:39.703Z,16.80
2023-04-14T10:20:16.465Z,20.60
2023-04-14T10:23:19.900Z,10.40
2023-04-14T10:26:40.793Z,11.60
2023-04-14T10:29:24.655Z,12.40
2023-04-14T10:32:22.376Z,12.00
2023-04-14T10:35:14.377Z,10.20
2023-04-14T10:37:59.510Z,7.10
2023-04-14T10:41:11.394Z,8.30
2023-04-14T10:43:55.718Z,6.90
2023-04-14T10:47:17.346Z,9.40
2023-04-14T10:50:06.397Z,8.60
2023-04-14T10:53:07.085Z,6.30
2023-04-14T10:56:01.130Z,8.60
2023-04-14T10:59:02.308Z,5.60
2023-04-14T11:01:47.289Z,9.30
2023-04-14T11:04:43.173Z,5.10
2023-04-14T11:07:26.911Z,4.70
2023-04-14T11:10:18.362Z,7.90
2023-04-14T11:13:08.305Z,3.90
2023-04-14T11:16:15.178Z,3.90
2023-04-14T11:19:07.895Z,7.50
2023-04-14T11:21:58.331Z,5.40
2023-04-14T11:24:52.189Z,8.80
2023-04-14T11:27:48.420Z,5.20
2023-04-14T11:31:04.271Z,6.20
2023-04-14T11:33:58.688Z,4.90
2023-04-14T11:36:45.000Z,7.50
2023-04-14T11:39:29.233Z,7.20
2023-04-14T11:42:04.067Z,4.50
2023-04-14T11:44:47.444Z,4.80
2023-04-14T11:47:34.534Z,4.20
2023-04-14T11:50:06.474Z,3.90
2023-04-14T11:53:00.124Z,6.00
2023-04-14T11:55:50.439Z,4.00
2023-04-14T11:58:27.606Z,4.60
2023-04-14T12:01:05.520Z,4.00
2023-04-14T12:03:45.396Z,4.40
2023-04-14T12:06:33.620Z,4.60
2023-04-14T12:09:15.105Z,7.20
2023-04-14T12:12:01.298Z,7.90
2023-04-14T12:15:00.931Z,4.40
2023-04-14T12:17:34.998Z,4.30
2023-04-14T12:20:42.365Z,4.30
2023-04-14T12:23:14.411Z,7.30
2023-04-14T12:25:59.229Z,8.40
2023-04-14T12:29:11.270Z,6.40
2023-04-14T12:31:46.245Z,5.00
2023-04-14T12:35:01.795Z,5.20
2023-04-14T12:37:54.012Z,5.90
2023-04-14T12:41:05.335Z,4.80
2023-04-14T12:47:11.536Z,7.80
2023-04-14T12:50:51.975Z,5.70
2023-04-14T12:53:35.568Z,6.20
2023-04-14T12:56:23.000Z,6.90
2023-04-14T12:59:08.181Z,7.00
2023-04-14T13:01:44.318Z,5.90
2023-04-14T13:04:30.392Z,6.50
2023-04-14T13:07:42.026Z,5.90
2023-04-14T13:10:16.631Z,6.30
2023-04-14T13:13:07.586Z,8.20
2023-04-14T13:16:13.566Z,5.20
2023-04-14T13:18:39.528Z,8.10
2023-04-14T13:21:29.518Z,6.30
2023-04-14T13:24:03.920Z,8.50
2023-04-14T13:26:46.959Z,6.60
2023-04-14T13:29:25.440Z,7.30
2023-04-14T13:32:02.569Z,8.10
2023-04-14T13:34:50.772Z,15.80
2023-04-14T13:37:30.683Z,8.90
2023-04-14T13:43:07.555Z,9.40
2023-04-14T13:46:00.886Z,6.00
2023-04-14T13:48:42.187Z,6.10
2023-04-14T13:51:17.534Z,9.60
2023-04-14T13:53:57.362Z,6.70
2023-04-14T13:56:41.596Z,6.90
2023-04-14T13:59:36.561Z,5.60
2023-04-14T14:02:19.466Z,7.00
2023-04-14T14:05:07.436Z,9.40
2023-04-14T14:07:45.050Z,6.80
2023-04-14T14:10:28.177Z,6.30
2023-04-14T14:13:06.911Z,11.20
2023-04-14T14:15:57.969Z,10.30
2023-04-14T14:18:43.646Z,6.40
2023-04-14T14:21:22.582Z,6.30
2023-04-14T14:24:00.566Z,7.00
2023-04-14T14:26:48.494Z,8.40
2023-04-14T14:29:22.714Z,10.50
2023-04-14T14:32:06.510Z,9.60
2023-04-14T14:34:48.972Z,7.80
2023-04-14T14:39:06.154Z,11.20
2023-04-14T14:41:54.467Z,7.30
2023-04-14T14:45:02.439Z,10.90
2023-04-14T14:48:13.536Z,8.90
2023-04-14T14:51:49.860Z,7.80
2023-04-14T14:55:24.043Z,8.00
2023-04-14T14:58:10.818Z,12.10
2023-04-14T15:00:56.402Z,10.20
2023-04-14T15:03:54.083Z,13.30
2023-04-14T15:06:45.266Z,8.10
2023-04-14T15:09:26.975Z,8.10
2023-04-14T15:12:29.903Z,9.10
2023-04-14T15:15:13.897Z,8.40
2023-04-14T15:18:03.338Z,7.60
2023-04-14T15:21:22.105Z,7.80
2023-04-14T15:24:19.184Z,7.40
2023-04-14T15:27:21.457Z,10.90
2023-04-14T15:30:02.792Z,8.70
2023-04-14T15:32:49.842Z,9.70
2023-04-14T15:35:53.430Z,10.30
2023-04-14T15:39:09.467Z,10.00
2023-04-14T15:42:09.025Z,9.70
2023-04-14T15:45:19.509Z,13.00
2023-04-14T15:48:10.273Z,15.20
2023-04-14T15:51:07.251Z,8.20
2023-04-14T15:54:08.556Z,11.90
2023-04-14T15:57:06.949Z,9.90
2023-04-14T15:59:59.804Z,10.70
2023-04-14T16:03:05.224Z,16.00
2023-04-14T16:06:36.635Z,14.00
2023-04-14T16:09:50.713Z,16.00
2023-04-14T16:13:00.376Z,19.40
2023-04-14T16:15:35.983Z,15.40
2023-04-14T16:18:40.013Z,14.20
2023-04-14T16:21:53.863Z,13.40
2023-04-14T16:25:01.942Z,13.00
2023-04-14T16:28:17.429Z,16.80
2023-04-14T16:31:23.988Z,21.00
2023-04-14T16:34:27.064Z,18.90
2023-04-14T16:37:19.798Z,24.80
2023-04-14T16:40:17.317Z,23.80
2023-04-14T16:43:14.164Z,39.20
2023-04-14T16:46:33.355Z,26.20
2023-04-14T16:49:56.887Z,27.90
2023-04-14T16:52:50.470Z,40.90
2023-04-14T16:56:28.036Z,34.00
2023-04-14T16:59:18.724Z,32.50
2023-04-14T17:02:28.406Z,25.60
2023-04-14T17:05:08.552Z,22.80
2023-04-14T17:07:49.597Z,20.10
2023-04-14T17:10:34.299Z,19.30
2023-04-14T17:13:11.209Z,13.70
2023-04-14T17:15:46.357Z,16.50
2023-04-14T17:18:53.144Z,15.70
2023-04-14T17:21:41.703Z,15.20
2023-04-14T17:24:23.762Z,11.20
2023-04-14T17:27:13.308Z,11.80
2023-04-14T17:30:03.796Z,13.70
2023-04-14T17:32:57.915Z,13.90
2023-04-14T17:36:02.584Z,12.10
2023-04-14T17:38:55.446Z,10.70
2023-04-14T17:41:58.377Z,18.90
2023-04-14T17:44:45.416Z,11.70
2023-04-14T17:47:50.070Z,14.10
2023-04-14T17:53:42.087Z,10.50
2023-04-14T17:56:45.600Z,10.40
2023-04-14T17:59:44.313Z,10.50
2023-04-14T18:02:50.154Z,12.50
2023-04-14T18:05:41.974Z,10.50
2023-04-14T18:08:36.088Z,10.10
2023-04-14T18:11:15.216Z,13.70
2023-04-14T18:14:21.422Z,10.40
2023-04-14T18:23:08.433Z,12.30
2023-04-14T18:26:27.093Z,14.80
2023-04-14T18:29:19.385Z,10.30
2023-04-14T18:31:56.895Z,12.00
2023-04-14T18:34:41.825Z,9.90
2023-04-14T18:37:21.847Z,11.80
2023-04-14T18:40:20.848Z,10.60
2023-04-14T18:43:02.988Z,13.20
2023-04-14T18:45:54.355Z,9.80
2023-04-14T18:48:46.595Z,8.70
2023-04-14T18:51:30.180Z,9.50
2023-04-14T18:54:08.943Z,13.40
2023-04-14T18:56:55.725Z,11.00
2023-04-14T18:59:34.994Z,13.10
2023-04-14T19:02:19.348Z,9.70
2023-04-14T19:04:51.916Z,11.40
2023-04-14T19:07:41.594Z,10.20
2023-04-14T19:10:21.250Z,11.00
2023-04-14T19:13:01.423Z,11.40
2023-04-14T19:15:44.294Z,13.70
2023-04-14T19:18:53.732Z,9.30
2023-04-14T19:21:35.723Z,9.40
2023-04-14T19:24:14.065Z,10.00
2023-04-14T19:26:55.911Z,17.50
2023-04-14T19:29:39.741Z,12.80
2023-04-14T19:32:20.233Z,11.70
2023-04-14T19:34:55.135Z,10.10
2023-04-14T19:37:40.973Z,10.60
2023-04-14T19:40:29.529Z,10.30
2023-04-14T19:43:20.290Z,12.60
2023-04-14T19:46:14.000Z,12.50
2023-04-14T19:49:10.257Z,15.00
2023-04-14T19:52:43.926Z,10.40
2023-04-14T19:59:50.312Z,8.70
2023-04-14T20:02:30.422Z,8.30
2023-04-14T20:05:32.124Z,9.60
2023-04-14T20:08:41.984Z,9.50
2023-04-14T20:11:40.440Z,12.50
2023-04-14T20:14:45.615Z,10.40
2023-04-14T20:20:38.083Z,11.50
2023-04-14T20:23:27.702Z,11.90
2023-04-14T20:26:32.877Z,11.20
2023-04-14T20:29:25.620Z,12.70
2023-04-14T20:32:08.618Z,10.00
2023-04-14T20:34:56.900Z,10.10
2023-04-14T20:37:38.222Z,11.80
2023-04-14T20:40:45.422Z,10.30
2023-04-14T20:43:50.073Z,9.20
2023-04-14T20:46:38.403Z,12.10
2023-04-14T20:49:49.746Z,13.40
2023-04-14T20:56:06.433Z,10.60
2023-04-14T20:58:54.363Z,9.40
2023-04-14T21:02:33.565Z,7.70
2023-04-14T21:05:31.663Z,12.60
2023-04-14T21:08:35.601Z,11.10
2023-04-14T21:11:16.697Z,11.90
2023-04-14T21:15:31.487Z,15.30
2023-04-14T21:16:52.661Z,14.90
2023-04-14T21:19:44.409Z,19.30
2023-04-14T21:23:04.666Z,13.80
2023-04-14T21:26:02.828Z,11.20
2023-04-14T21:29:10.556Z,9.50
2023-04-14T21:32:25.066Z,12.90
2023-04-14T21:35:30.791Z,14.50
2023-04-14T21:41:52.392Z,13.40
2023-04-14T21:44:43.135Z,12.70
2023-04-14T21:47:30.740Z,9.90
2023-04-14T21:50:16.826Z,9.60
2023-04-14T21:56:46.614Z,11.80
2023-04-14T21:59:30.131Z,10.90
2023-04-14T22:02:19.819Z,7.90
2023-04-14T22:05:10.891Z,9.60
2023-04-14T22:08:08.257Z,9.10
2023-04-14T22:10:50.468Z,9.10
2023-04-14T22:13:37.032Z,12.20
2023-04-14T22:16:45.809Z,12.40
2023-04-14T22:19:29.773Z,9.90
2023-04-14T22:22:28.104Z,12.20
2023-04-14T22:25:24.620Z,13.20
2023-04-14T22:28:00.137Z,8.80
2023-04-14T22:30:45.485Z,10.10
2023-04-14T22:33:36.488Z,10.40
2023-04-14T22:36:32.096Z,8.90
2023-04-14T22:39:25.512Z,11.80
2023-04-14T22:42:02.607Z,11.40
2023-04-14T22:48:02.529Z,10.60
2023-04-14T22:51:00.257Z,11.90
2023-04-14T22:53:53.313Z,14.10
2023-04-14T22:56:48.396Z,18.00
2023-04-14T22:59:36.902Z,17.80
2023-04-14T23:02:36.456Z,12.10
2023-04-14T23:05:22.680Z,14.30
2023-04-14T23:07:56.590Z,13.80
2023-04-14T23:10:42.209Z,11.10
2023-04-14T23:13:42.630Z,15.60
2023-04-14T23:16:27.834Z,10.50
2023-04-14T23:19:14.614Z,12.00
2023-04-14T23:21:56.362Z,12.10
2023-04-14T23:24:40.797Z,10.50
2023-04-14T23:27:19.347Z,8.90
2023-04-14T23:30:08.326Z,15.80
2023-04-14T23:32:52.871Z,10.10
2023-04-14T23:35:44.064Z,10.10
2023-04-14T23:38:29.924Z,8.40
2023-04-14T23:41:00.692Z,9.10
2023-04-14T23:43:40.379Z,8.70
2023-04-14T23:46:19.761Z,9.80
2023-04-14T23:49:11.268Z,11.70
2023-04-14T23:52:10.178Z,9.60
2023-04-14T23:54:45.445Z,12.00
2023-04-14T23:57:26.084Z,11.70
